sensor_id;sensor_type;location;lat;lon;timestamp;P1;durP1;ratioP1;P2;durP2;ratioP2
29432;SDS011;16405;53.964;13.448;2022-09-09T00:00:48;57.92;;;43.17;;
29432;SDS011;16405;53.964;13.448;2022-09-09T00:03:26;59.90;;;42.75;;
29432;SDS011;16405;53.964;13.448;2022-09-09T00:06:07;47.10;;;36.33;;
29432;SDS011;16405;53.964;13.448;2022-09-09T00:14:49;38.35;;;30.73;;
29432;SDS011;16405;53.964;13.448;2022-09-09T00:17:32;37.95;;;28.13;;
29432;SDS011;16405;53.964;13.448;2022-09-09T00:22:48;35.05;;;27.38;;
29432;SDS011;16405;53.964;13.448;2022-09-09T00:25:28;32.35;;;25.08;;
29432;SDS011;16405;53.964;13.448;2022-09-09T00:28:09;33.22;;;25.02;;
29432;SDS011;16405;53.964;13.448;2022-09-09T00:30:47;28.67;;;24.00;;
29432;SDS011;16405;53.964;13.448;2022-09-09T00:33:13;28.08;;;22.50;;
29432;SDS011;16405;53.964;13.448;2022-09-09T00:35:44;26.88;;;21.80;;
29432;SDS011;16405;53.964;13.448;2022-09-09T00:38:26;28.52;;;22.27;;
29432;SDS011;16405;53.964;13.448;2022-09-09T00:53:02;22.58;;;17.67;;
29432;SDS011;16405;53.964;13.448;2022-09-09T00:56:13;22.33;;;17.02;;
29432;SDS011;16405;53.964;13.448;2022-09-09T00:58:55;19.95;;;15.73;;
29432;SDS011;16405;53.964;13.448;2022-09-09T01:01:55;17.60;;;14.00;;
29432;SDS011;16405;53.964;13.448;2022-09-09T01:04:27;15.88;;;13.88;;
29432;SDS011;16405;53.964;13.448;2022-09-09T01:10:00;19.25;;;14.45;;
29432;SDS011;16405;53.964;13.448;2022-09-09T01:12:42;17.30;;;13.80;;
29432;SDS011;16405;53.964;13.448;2022-09-09T01:15:25;14.70;;;11.85;;
29432;SDS011;16405;53.964;13.448;2022-09-09T01:18:05;19.58;;;13.68;;
29432;SDS011;16405;53.964;13.448;2022-09-09T01:20:46;19.42;;;16.02;;
29432;SDS011;16405;53.964;13.448;2022-09-09T01:26:42;26.02;;;18.42;;
29432;SDS011;16405;53.964;13.448;2022-09-09T01:29:16;22.13;;;18.88;;
29432;SDS011;16405;53.964;13.448;2022-09-09T01:31:55;23.98;;;20.45;;
29432;SDS011;16405;53.964;13.448;2022-09-09T01:34:33;24.40;;;21.30;;
29432;SDS011;16405;53.964;13.448;2022-09-09T01:37:05;27.42;;;23.45;;
29432;SDS011;16405;53.964;13.448;2022-09-09T01:39:37;30.55;;;24.65;;
29432;SDS011;16405;53.964;13.448;2022-09-09T01:42:09;30.95;;;26.35;;
29432;SDS011;16405;53.964;13.448;2022-09-09T01:44:40;37.47;;;28.52;;
29432;SDS011;16405;53.964;13.448;2022-09-09T01:47:06;38.53;;;29.65;;
29432;SDS011;16405;53.964;13.448;2022-09-09T01:49:33;37.42;;;31.55;;
29432;SDS011;16405;53.964;13.448;2022-09-09T01:51:59;39.40;;;33.45;;
29432;SDS011;16405;53.964;13.448;2022-09-09T01:54:26;45.58;;;34.28;;
29432;SDS011;16405;53.964;13.448;2022-09-09T01:57:32;41.65;;;35.35;;
29432;SDS011;16405;53.964;13.448;2022-09-09T02:08:40;48.03;;;39.65;;
29432;SDS011;16405;53.964;13.448;2022-09-09T02:11:23;47.53;;;42.05;;
29432;SDS011;16405;53.964;13.448;2022-09-09T02:14:02;48.63;;;41.58;;
29432;SDS011;16405;53.964;13.448;2022-09-09T02:16:39;54.53;;;44.58;;
29432;SDS011;16405;53.964;13.448;2022-09-09T02:19:27;52.83;;;46.08;;
29432;SDS011;16405;53.964;13.448;2022-09-09T02:22:00;50.38;;;44.10;;
29432;SDS011;16405;53.964;13.448;2022-09-09T02:24:27;50.08;;;44.63;;
29432;SDS011;16405;53.964;13.448;2022-09-09T02:27:02;49.40;;;43.58;;
29432;SDS011;16405;53.964;13.448;2022-09-09T02:29:34;47.72;;;42.53;;
29432;SDS011;16405;53.964;13.448;2022-09-09T02:32:06;44.95;;;40.15;;
29432;SDS011;16405;53.964;13.448;2022-09-09T02:34:44;42.38;;;37.53;;
29432;SDS011;16405;53.964;13.448;2022-09-09T02:37:29;43.00;;;37.97;;
29432;SDS011;16405;53.964;13.448;2022-09-09T02:40:03;41.95;;;37.50;;
29432;SDS011;16405;53.964;13.448;2022-09-09T02:42:40;39.33;;;35.10;;
29432;SDS011;16405;53.964;13.448;2022-09-09T02:45:12;40.50;;;34.88;;
29432;SDS011;16405;53.964;13.448;2022-09-09T02:50:32;40.35;;;35.60;;
29432;SDS011;16405;53.964;13.448;2022-09-09T02:53:20;38.38;;;33.67;;
29432;SDS011;16405;53.964;13.448;2022-09-09T02:56:08;37.97;;;32.55;;
29432;SDS011;16405;53.964;13.448;2022-09-09T02:58:42;35.75;;;31.95;;
29432;SDS011;16405;53.964;13.448;2022-09-09T03:01:15;43.17;;;32.50;;
29432;SDS011;16405;53.964;13.448;2022-09-09T03:03:42;36.10;;;30.65;;
29432;SDS011;16405;53.964;13.448;2022-09-09T03:06:09;35.83;;;30.00;;
29432;SDS011;16405;53.964;13.448;2022-09-09T03:08:37;35.47;;;31.63;;
29432;SDS011;16405;53.964;13.448;2022-09-09T03:11:07;34.70;;;29.83;;
29432;SDS011;16405;53.964;13.448;2022-09-09T03:13:39;35.78;;;31.40;;
29432;SDS011;16405;53.964;13.448;2022-09-09T03:16:07;41.03;;;33.25;;
29432;SDS011;16405;53.964;13.448;2022-09-09T03:18:33;37.78;;;32.97;;
29432;SDS011;16405;53.964;13.448;2022-09-09T03:20:59;36.35;;;32.25;;
29432;SDS011;16405;53.964;13.448;2022-09-09T03:23:26;41.25;;;34.50;;
29432;SDS011;16405;53.964;13.448;2022-09-09T03:25:52;40.92;;;34.90;;
29432;SDS011;16405;53.964;13.448;2022-09-09T03:28:21;40.85;;;33.90;;
29432;SDS011;16405;53.964;13.448;2022-09-09T03:30:50;38.10;;;33.13;;
29432;SDS011;16405;53.964;13.448;2022-09-09T03:33:15;40.97;;;33.92;;
29432;SDS011;16405;53.964;13.448;2022-09-09T03:35:46;44.03;;;36.10;;
29432;SDS011;16405;53.964;13.448;2022-09-09T03:38:21;38.08;;;31.80;;
29432;SDS011;16405;53.964;13.448;2022-09-09T03:40:57;37.08;;;30.88;;
29432;SDS011;16405;53.964;13.448;2022-09-09T03:43:25;34.33;;;28.25;;
29432;SDS011;16405;53.964;13.448;2022-09-09T03:45:52;35.50;;;27.92;;
29432;SDS011;16405;53.964;13.448;2022-09-09T03:48:21;44.70;;;31.25;;
29432;SDS011;16405;53.964;13.448;2022-09-09T03:50:53;33.67;;;28.40;;
29432;SDS011;16405;53.964;13.448;2022-09-09T03:53:21;42.70;;;28.98;;
29432;SDS011;16405;53.964;13.448;2022-09-09T03:55:53;32.75;;;26.60;;
29432;SDS011;16405;53.964;13.448;2022-09-09T03:58:23;33.15;;;26.13;;
29432;SDS011;16405;53.964;13.448;2022-09-09T04:03:22;37.08;;;25.67;;
29432;SDS011;16405;53.964;13.448;2022-09-09T04:05:49;32.58;;;24.98;;
29432;SDS011;16405;53.964;13.448;2022-09-09T04:08:17;32.80;;;25.77;;
29432;SDS011;16405;53.964;13.448;2022-09-09T04:10:49;35.25;;;26.70;;
29432;SDS011;16405;53.964;13.448;2022-09-09T04:13:15;30.63;;;23.58;;
29432;SDS011;16405;53.964;13.448;2022-09-09T04:15:43;46.55;;;24.35;;
29432;SDS011;16405;53.964;13.448;2022-09-09T04:18:16;34.55;;;24.27;;
29432;SDS011;16405;53.964;13.448;2022-09-09T04:20:41;31.17;;;23.70;;
29432;SDS011;16405;53.964;13.448;2022-09-09T04:23:08;35.63;;;24.33;;
29432;SDS011;16405;53.964;13.448;2022-09-09T04:25:34;30.55;;;22.83;;
29432;SDS011;16405;53.964;13.448;2022-09-09T04:28:00;34.97;;;24.67;;
29432;SDS011;16405;53.964;13.448;2022-09-09T04:30:26;35.13;;;24.45;;
29432;SDS011;16405;53.964;13.448;2022-09-09T04:32:54;39.05;;;24.08;;
29432;SDS011;16405;53.964;13.448;2022-09-09T04:35:21;33.53;;;22.98;;
29432;SDS011;16405;53.964;13.448;2022-09-09T04:37:47;31.80;;;22.77;;
29432;SDS011;16405;53.964;13.448;2022-09-09T04:40:13;36.05;;;24.67;;
29432;SDS011;16405;53.964;13.448;2022-09-09T04:42:40;40.40;;;25.98;;
29432;SDS011;16405;53.964;13.448;2022-09-09T04:45:08;35.92;;;25.85;;
29432;SDS011;16405;53.964;13.448;2022-09-09T04:47:38;37.45;;;25.25;;
29432;SDS011;16405;53.964;13.448;2022-09-09T04:50:04;36.78;;;25.83;;
29432;SDS011;16405;53.964;13.448;2022-09-09T04:52:30;36.72;;;26.80;;
29432;SDS011;16405;53.964;13.448;2022-09-09T04:54:58;36.65;;;26.42;;
29432;SDS011;16405;53.964;13.448;2022-09-09T04:57:24;40.53;;;26.55;;
29432;SDS011;16405;53.964;13.448;2022-09-09T04:59:53;37.00;;;25.88;;
29432;SDS011;16405;53.964;13.448;2022-09-09T05:02:19;35.70;;;24.80;;
29432;SDS011;16405;53.964;13.448;2022-09-09T05:04:45;40.63;;;28.15;;
29432;SDS011;16405;53.964;13.448;2022-09-09T05:09:38;40.72;;;27.08;;
29432;SDS011;16405;53.964;13.448;2022-09-09T05:12:13;40.45;;;27.33;;
29432;SDS011;16405;53.964;13.448;2022-09-09T05:14:38;46.80;;;28.67;;
29432;SDS011;16405;53.964;13.448;2022-09-09T05:17:04;53.10;;;30.58;;
29432;SDS011;16405;53.964;13.448;2022-09-09T05:19:30;38.90;;;27.05;;
29432;SDS011;16405;53.964;13.448;2022-09-09T05:22:01;45.38;;;27.67;;
29432;SDS011;16405;53.964;13.448;2022-09-09T05:24:27;40.83;;;26.70;;
29432;SDS011;16405;53.964;13.448;2022-09-09T05:26:54;36.80;;;25.73;;
29432;SDS011;16405;53.964;13.448;2022-09-09T05:29:23;39.63;;;26.00;;
29432;SDS011;16405;53.964;13.448;2022-09-09T05:31:53;36.25;;;25.50;;
29432;SDS011;16405;53.964;13.448;2022-09-09T05:34:19;36.17;;;25.63;;
29432;SDS011;16405;53.964;13.448;2022-09-09T05:36:45;38.03;;;24.73;;
29432;SDS011;16405;53.964;13.448;2022-09-09T05:39:12;36.17;;;24.58;;
29432;SDS011;16405;53.964;13.448;2022-09-09T05:41:38;42.35;;;23.85;;
29432;SDS011;16405;53.964;13.448;2022-09-09T05:44:08;45.38;;;25.08;;
29432;SDS011;16405;53.964;13.448;2022-09-09T05:46:34;39.90;;;24.38;;
29432;SDS011;16405;53.964;13.448;2022-09-09T05:49:00;40.97;;;25.92;;
29432;SDS011;16405;53.964;13.448;2022-09-09T05:51:28;46.92;;;25.05;;
29432;SDS011;16405;53.964;13.448;2022-09-09T05:53:57;41.60;;;25.95;;
29432;SDS011;16405;53.964;13.448;2022-09-09T05:56:26;41.63;;;23.52;;
29432;SDS011;16405;53.964;13.448;2022-09-09T05:58:54;37.10;;;23.27;;
29432;SDS011;16405;53.964;13.448;2022-09-09T06:01:22;35.92;;;24.00;;
29432;SDS011;16405;53.964;13.448;2022-09-09T06:03:55;36.67;;;23.65;;
29432;SDS011;16405;53.964;13.448;2022-09-09T06:06:25;43.55;;;25.52;;
29432;SDS011;16405;53.964;13.448;2022-09-09T06:09:01;42.33;;;25.95;;
29432;SDS011;16405;53.964;13.448;2022-09-09T06:11:28;41.63;;;24.48;;
29432;SDS011;16405;53.964;13.448;2022-09-09T06:14:02;46.15;;;26.85;;
29432;SDS011;16405;53.964;13.448;2022-09-09T06:16:29;47.90;;;27.58;;
29432;SDS011;16405;53.964;13.448;2022-09-09T06:18:57;47.03;;;26.30;;
29432;SDS011;16405;53.964;13.448;2022-09-09T06:21:30;46.92;;;25.88;;
29432;SDS011;16405;53.964;13.448;2022-09-09T06:23:58;42.08;;;25.02;;
29432;SDS011;16405;53.964;13.448;2022-09-09T06:26:26;42.38;;;24.92;;
29432;SDS011;16405;53.964;13.448;2022-09-09T06:28:56;48.65;;;26.77;;
29432;SDS011;16405;53.964;13.448;2022-09-09T06:31:23;53.10;;;25.90;;
29432;SDS011;16405;53.964;13.448;2022-09-09T06:33:58;63.47;;;28.83;;
29432;SDS011;16405;53.964;13.448;2022-09-09T06:36:34;67.40;;;30.00;;
29432;SDS011;16405;53.964;13.448;2022-09-09T06:39:05;71.63;;;31.63;;
29432;SDS011;16405;53.964;13.448;2022-09-09T06:41:33;70.50;;;31.23;;
29432;SDS011;16405;53.964;13.448;2022-09-09T06:43:59;80.57;;;32.00;;
29432;SDS011;16405;53.964;13.448;2022-09-09T06:46:27;77.22;;;33.33;;
29432;SDS011;16405;53.964;13.448;2022-09-09T06:48:56;74.90;;;33.05;;
29432;SDS011;16405;53.964;13.448;2022-09-09T06:51:31;70.22;;;31.95;;
29432;SDS011;16405;53.964;13.448;2022-09-09T06:54:00;77.40;;;32.38;;
29432;SDS011;16405;53.964;13.448;2022-09-09T06:56:29;68.68;;;31.08;;
29432;SDS011;16405;53.964;13.448;2022-09-09T06:58:58;84.40;;;34.13;;
29432;SDS011;16405;53.964;13.448;2022-09-09T07:01:31;76.60;;;33.35;;
29432;SDS011;16405;53.964;13.448;2022-09-09T07:04:00;77.93;;;32.75;;
29432;SDS011;16405;53.964;13.448;2022-09-09T07:06:35;80.78;;;32.67;;
29432;SDS011;16405;53.964;13.448;2022-09-09T07:09:15;67.68;;;32.78;;
29432;SDS011;16405;53.964;13.448;2022-09-09T07:11:42;68.65;;;31.75;;
29432;SDS011;16405;53.964;13.448;2022-09-09T07:14:17;75.47;;;34.03;;
29432;SDS011;16405;53.964;13.448;2022-09-09T07:16:43;69.40;;;33.38;;
29432;SDS011;16405;53.964;13.448;2022-09-09T07:19:11;76.30;;;35.65;;
29432;SDS011;16405;53.964;13.448;2022-09-09T07:21:38;76.10;;;35.03;;
29432;SDS011;16405;53.964;13.448;2022-09-09T07:24:10;68.13;;;34.92;;
29432;SDS011;16405;53.964;13.448;2022-09-09T07:26:36;67.28;;;35.08;;
29432;SDS011;16405;53.964;13.448;2022-09-09T07:29:04;71.97;;;35.22;;
29432;SDS011;16405;53.964;13.448;2022-09-09T07:31:34;69.32;;;35.67;;
29432;SDS011;16405;53.964;13.448;2022-09-09T07:34:03;62.92;;;34.70;;
29432;SDS011;16405;53.964;13.448;2022-09-09T07:36:30;56.65;;;31.20;;
29432;SDS011;16405;53.964;13.448;2022-09-09T07:39:09;53.15;;;32.22;;
29432;SDS011;16405;53.964;13.448;2022-09-09T07:41:48;52.28;;;28.77;;
29432;SDS011;16405;53.964;13.448;2022-09-09T07:44:15;48.63;;;29.25;;
29432;SDS011;16405;53.964;13.448;2022-09-09T07:46:47;51.78;;;29.77;;
29432;SDS011;16405;53.964;13.448;2022-09-09T07:49:14;49.83;;;28.80;;
29432;SDS011;16405;53.964;13.448;2022-09-09T07:51:41;46.78;;;28.65;;
29432;SDS011;16405;53.964;13.448;2022-09-09T07:54:11;41.25;;;25.33;;
29432;SDS011;16405;53.964;13.448;2022-09-09T07:56:40;46.75;;;28.60;;
29432;SDS011;16405;53.964;13.448;2022-09-09T07:59:06;50.28;;;29.17;;
29432;SDS011;16405;53.964;13.448;2022-09-09T08:01:38;43.80;;;27.85;;
29432;SDS011;16405;53.964;13.448;2022-09-09T08:04:11;49.92;;;30.85;;
29432;SDS011;16405;53.964;13.448;2022-09-09T08:06:44;44.40;;;28.55;;
29432;SDS011;16405;53.964;13.448;2022-09-09T08:09:20;45.33;;;29.58;;
29432;SDS011;16405;53.964;13.448;2022-09-09T08:11:47;43.60;;;27.95;;
29432;SDS011;16405;53.964;13.448;2022-09-09T08:14:13;46.80;;;29.63;;
29432;SDS011;16405;53.964;13.448;2022-09-09T08:16:43;46.80;;;28.73;;
29432;SDS011;16405;53.964;13.448;2022-09-09T08:19:12;44.03;;;27.92;;
29432;SDS011;16405;53.964;13.448;2022-09-09T08:21:40;42.42;;;27.30;;
29432;SDS011;16405;53.964;13.448;2022-09-09T08:24:10;34.50;;;23.77;;
29432;SDS011;16405;53.964;13.448;2022-09-09T08:26:45;37.72;;;24.05;;
29432;SDS011;16405;53.964;13.448;2022-09-09T08:29:18;34.22;;;25.27;;
29432;SDS011;16405;53.964;13.448;2022-09-09T08:31:45;36.25;;;24.00;;
29432;SDS011;16405;53.964;13.448;2022-09-09T08:34:20;33.33;;;24.13;;
29432;SDS011;16405;53.964;13.448;2022-09-09T08:36:52;36.65;;;23.70;;
29432;SDS011;16405;53.964;13.448;2022-09-09T08:39:24;34.88;;;23.92;;
29432;SDS011;16405;53.964;13.448;2022-09-09T08:55:52;31.05;;;20.25;;
29432;SDS011;16405;53.964;13.448;2022-09-09T08:58:34;33.92;;;20.77;;
29432;SDS011;16405;53.964;13.448;2022-09-09T09:12:32;28.95;;;17.75;;
29432;SDS011;16405;53.964;13.448;2022-09-09T09:15:17;26.42;;;18.50;;
29432;SDS011;16405;53.964;13.448;2022-09-09T09:17:52;28.50;;;19.33;;
29432;SDS011;16405;53.964;13.448;2022-09-09T09:20:20;26.90;;;18.55;;
29432;SDS011;16405;53.964;13.448;2022-09-09T09:23:01;27.30;;;19.10;;
29432;SDS011;16405;53.964;13.448;2022-09-09T09:25:40;32.35;;;18.60;;
29432;SDS011;16405;53.964;13.448;2022-09-09T09:28:13;26.60;;;18.30;;
29432;SDS011;16405;53.964;13.448;2022-09-09T09:30:50;28.73;;;17.52;;
29432;SDS011;16405;53.964;13.448;2022-09-09T09:36:11;26.17;;;18.23;;
29432;SDS011;16405;53.964;13.448;2022-09-09T09:38:59;24.77;;;17.17;;
29432;SDS011;16405;53.964;13.448;2022-09-09T09:41:41;26.23;;;18.58;;
29432;SDS011;16405;53.964;13.448;2022-09-09T09:47:10;24.90;;;17.83;;
29432;SDS011;16405;53.964;13.448;2022-09-09T09:52:30;27.38;;;17.52;;
29432;SDS011;16405;53.964;13.448;2022-09-09T09:55:11;28.38;;;17.30;;
29432;SDS011;16405;53.964;13.448;2022-09-09T09:57:42;22.63;;;17.33;;
29432;SDS011;16405;53.964;13.448;2022-09-09T10:00:14;21.98;;;15.38;;
29432;SDS011;16405;53.964;13.448;2022-09-09T10:03:12;24.02;;;14.48;;
29432;SDS011;16405;53.964;13.448;2022-09-09T10:06:29;21.77;;;15.75;;
29432;SDS011;16405;53.964;13.448;2022-09-09T10:09:22;22.40;;;16.38;;
29432;SDS011;16405;53.964;13.448;2022-09-09T10:19:44;19.38;;;13.68;;
29432;SDS011;16405;53.964;13.448;2022-09-09T10:22:23;18.60;;;13.80;;
29432;SDS011;16405;53.964;13.448;2022-09-09T10:37:06;17.35;;;12.73;;
29432;SDS011;16405;53.964;13.448;2022-09-09T10:40:02;17.35;;;11.45;;
29432;SDS011;16405;53.964;13.448;2022-09-09T10:43:09;21.05;;;11.77;;
29432;SDS011;16405;53.964;13.448;2022-09-09T10:53:24;15.60;;;10.15;;
29432;SDS011;16405;53.964;13.448;2022-09-09T10:56:08;16.20;;;10.48;;
29432;SDS011;16405;53.964;13.448;2022-09-09T10:58:51;18.35;;;10.02;;
29432;SDS011;16405;53.964;13.448;2022-09-09T11:01:55;16.27;;;9.45;;
29432;SDS011;16405;53.964;13.448;2022-09-09T11:04:55;13.90;;;8.40;;
29432;SDS011;16405;53.964;13.448;2022-09-09T11:08:01;14.10;;;9.60;;
29432;SDS011;16405;53.964;13.448;2022-09-09T11:17:35;13.50;;;7.63;;
29432;SDS011;16405;53.964;13.448;2022-09-09T11:20:20;16.27;;;8.20;;
29432;SDS011;16405;53.964;13.448;2022-09-09T11:27:11;13.50;;;8.68;;
29432;SDS011;16405;53.964;13.448;2022-09-09T11:43:50;11.77;;;7.63;;
29432;SDS011;16405;53.964;13.448;2022-09-09T11:46:43;12.05;;;6.35;;
29432;SDS011;16405;53.964;13.448;2022-09-09T11:57:04;14.77;;;6.88;;
29432;SDS011;16405;53.964;13.448;2022-09-09T12:00:03;10.65;;;6.22;;
29432;SDS011;16405;53.964;13.448;2022-09-09T12:02:57;12.85;;;5.72;;
29432;SDS011;16405;53.964;13.448;2022-09-09T12:05:51;8.10;;;4.95;;
29432;SDS011;16405;53.964;13.448;2022-09-09T12:08:20;11.65;;;5.07;;
29432;SDS011;16405;53.964;13.448;2022-09-09T12:10:58;11.63;;;5.13;;
29432;SDS011;16405;53.964;13.448;2022-09-09T12:13:32;7.70;;;4.63;;
29432;SDS011;16405;53.964;13.448;2022-09-09T12:25:26;6.43;;;5.13;;
29432;SDS011;16405;53.964;13.448;2022-09-09T12:41:41;7.82;;;4.60;;
29432;SDS011;16405;53.964;13.448;2022-09-09T12:58:24;8.73;;;2.45;;
29432;SDS011;16405;53.964;13.448;2022-09-09T13:01:42;4.63;;;2.33;;
29432;SDS011;16405;53.964;13.448;2022-09-09T13:11:35;5.30;;;2.50;;
29432;SDS011;16405;53.964;13.448;2022-09-09T13:14:54;4.57;;;3.35;;
29432;SDS011;16405;53.964;13.448;2022-09-09T13:17:41;7.85;;;4.93;;
29432;SDS011;16405;53.964;13.448;2022-09-09T13:23:31;8.75;;;5.50;;
29432;SDS011;16405;53.964;13.448;2022-09-09T13:30:38;11.10;;;6.07;;
29432;SDS011;16405;53.964;13.448;2022-09-09T13:33:28;7.60;;;5.20;;
29432;SDS011;16405;53.964;13.448;2022-09-09T13:36:35;7.45;;;5.55;;
29432;SDS011;16405;53.964;13.448;2022-09-09T13:39:50;8.67;;;6.63;;
29432;SDS011;16405;53.964;13.448;2022-09-09T13:43:34;8.00;;;5.93;;
29432;SDS011;16405;53.964;13.448;2022-09-09T13:46:43;10.55;;;5.28;;
29432;SDS011;16405;53.964;13.448;2022-09-09T13:49:35;11.77;;;6.15;;
29432;SDS011;16405;53.964;13.448;2022-09-09T13:52:05;12.57;;;6.70;;
29432;SDS011;16405;53.964;13.448;2022-09-09T13:55:12;15.18;;;6.25;;
29432;SDS011;16405;53.964;13.448;2022-09-09T13:57:50;7.55;;;4.30;;
29432;SDS011;16405;53.964;13.448;2022-09-09T14:00:52;5.82;;;4.72;;
29432;SDS011;16405;53.964;13.448;2022-09-09T14:03:30;8.73;;;5.13;;
29432;SDS011;16405;53.964;13.448;2022-09-09T14:06:07;6.65;;;4.13;;
29432;SDS011;16405;53.964;13.448;2022-09-09T14:08:36;9.98;;;4.53;;
29432;SDS011;16405;53.964;13.448;2022-09-09T14:11:32;7.68;;;4.55;;
29432;SDS011;16405;53.964;13.448;2022-09-09T14:14:08;8.02;;;4.60;;
29432;SDS011;16405;53.964;13.448;2022-09-09T14:16:37;7.15;;;4.30;;
29432;SDS011;16405;53.964;13.448;2022-09-09T14:19:29;12.20;;;5.13;;
29432;SDS011;16405;53.964;13.448;2022-09-09T14:22:08;7.38;;;4.30;;
29432;SDS011;16405;53.964;13.448;2022-09-09T14:24:53;8.18;;;5.28;;
29432;SDS011;16405;53.964;13.448;2022-09-09T14:27:31;8.00;;;4.90;;
29432;SDS011;16405;53.964;13.448;2022-09-09T14:29:57;9.70;;;4.93;;
29432;SDS011;16405;53.964;13.448;2022-09-09T14:33:22;6.32;;;4.07;;
29432;SDS011;16405;53.964;13.448;2022-09-09T14:35:29;7.63;;;3.50;;
29432;SDS011;16405;53.964;13.448;2022-09-09T14:38:07;10.80;;;4.40;;
29432;SDS011;16405;53.964;13.448;2022-09-09T14:40:37;7.60;;;5.13;;
29432;SDS011;16405;53.964;13.448;2022-09-09T14:43:33;5.85;;;4.43;;
29432;SDS011;16405;53.964;13.448;2022-09-09T14:46:08;5.78;;;4.30;;
29432;SDS011;16405;53.964;13.448;2022-09-09T14:51:47;8.13;;;4.65;;
29432;SDS011;16405;53.964;13.448;2022-09-09T14:54:13;6.90;;;3.90;;
29432;SDS011;16405;53.964;13.448;2022-09-09T14:56:50;12.30;;;4.50;;
29432;SDS011;16405;53.964;13.448;2022-09-09T14:59:16;8.80;;;4.10;;
29432;SDS011;16405;53.964;13.448;2022-09-09T15:05:22;8.85;;;3.95;;
29432;SDS011;16405;53.964;13.448;2022-09-09T15:08:54;7.55;;;4.55;;
29432;SDS011;16405;53.964;13.448;2022-09-09T15:11:27;8.60;;;5.00;;
29432;SDS011;16405;53.964;13.448;2022-09-09T15:14:09;10.80;;;5.07;;
29432;SDS011;16405;53.964;13.448;2022-09-09T15:16:38;9.25;;;4.78;;
29432;SDS011;16405;53.964;13.448;2022-09-09T15:19:27;9.60;;;4.90;;
29432;SDS011;16405;53.964;13.448;2022-09-09T15:21:56;12.75;;;4.72;;
29432;SDS011;16405;53.964;13.448;2022-09-09T15:27:32;8.52;;;4.50;;
29432;SDS011;16405;53.964;13.448;2022-09-09T15:29:59;7.68;;;4.78;;
29432;SDS011;16405;53.964;13.448;2022-09-09T15:32:25;7.55;;;4.35;;
29432;SDS011;16405;53.964;13.448;2022-09-09T15:34:54;5.82;;;4.10;;
29432;SDS011;16405;53.964;13.448;2022-09-09T15:37:20;6.93;;;4.18;;
29432;SDS011;16405;53.964;13.448;2022-09-09T15:39:45;8.77;;;4.28;;
29432;SDS011;16405;53.964;13.448;2022-09-09T15:42:11;8.52;;;4.57;;
29432;SDS011;16405;53.964;13.448;2022-09-09T15:44:41;6.60;;;4.47;;
29432;SDS011;16405;53.964;13.448;2022-09-09T15:47:07;5.60;;;4.10;;
29432;SDS011;16405;53.964;13.448;2022-09-09T15:49:35;6.38;;;4.60;;
29432;SDS011;16405;53.964;13.448;2022-09-09T15:52:01;6.07;;;4.53;;
29432;SDS011;16405;53.964;13.448;2022-09-09T15:54:28;7.15;;;4.45;;
29432;SDS011;16405;53.964;13.448;2022-09-09T15:57:02;7.25;;;4.65;;
29432;SDS011;16405;53.964;13.448;2022-09-09T15:59:29;7.28;;;4.35;;
29432;SDS011;16405;53.964;13.448;2022-09-09T16:01:57;13.77;;;9.02;;
29432;SDS011;16405;53.964;13.448;2022-09-09T16:04:25;20.10;;;12.02;;
29432;SDS011;16405;53.964;13.448;2022-09-09T16:06:53;20.63;;;13.88;;
29432;SDS011;16405;53.964;13.448;2022-09-09T16:09:25;19.75;;;15.75;;
29432;SDS011;16405;53.964;13.448;2022-09-09T16:11:52;21.50;;;16.77;;
29432;SDS011;16405;53.964;13.448;2022-09-09T16:14:18;29.48;;;20.05;;
29432;SDS011;16405;53.964;13.448;2022-09-09T16:16:44;28.27;;;19.00;;
29432;SDS011;16405;53.964;13.448;2022-09-09T16:19:11;29.42;;;19.80;;
29432;SDS011;16405;53.964;13.448;2022-09-09T16:21:39;36.85;;;21.63;;
29432;SDS011;16405;53.964;13.448;2022-09-09T16:24:13;33.72;;;22.27;;
29432;SDS011;16405;53.964;13.448;2022-09-09T16:26:43;33.70;;;21.33;;
29432;SDS011;16405;53.964;13.448;2022-09-09T16:29:15;29.35;;;22.58;;
29432;SDS011;16405;53.964;13.448;2022-09-09T16:31:43;29.67;;;22.67;;
29432;SDS011;16405;53.964;13.448;2022-09-09T16:34:10;39.20;;;24.08;;
29432;SDS011;16405;53.964;13.448;2022-09-09T16:36:37;34.00;;;22.17;;
29432;SDS011;16405;53.964;13.448;2022-09-09T16:39:06;30.75;;;21.70;;
29432;SDS011;16405;53.964;13.448;2022-09-09T16:41:35;28.55;;;21.95;;
29432;SDS011;16405;53.964;13.448;2022-09-09T16:44:03;33.72;;;22.65;;
29432;SDS011;16405;53.964;13.448;2022-09-09T16:46:32;32.28;;;22.58;;
29432;SDS011;16405;53.964;13.448;2022-09-09T16:49:05;32.47;;;21.88;;
29432;SDS011;16405;53.964;13.448;2022-09-09T16:51:40;37.72;;;22.33;;
29432;SDS011;16405;53.964;13.448;2022-09-09T16:54:12;32.80;;;21.58;;
29432;SDS011;16405;53.964;13.448;2022-09-09T16:56:39;27.98;;;19.75;;
29432;SDS011;16405;53.964;13.448;2022-09-09T16:59:07;33.33;;;20.70;;
29432;SDS011;16405;53.964;13.448;2022-09-09T17:01:38;26.77;;;18.83;;
29432;SDS011;16405;53.964;13.448;2022-09-09T17:04:07;33.25;;;18.90;;
29432;SDS011;16405;53.964;13.448;2022-09-09T17:06:38;25.52;;;18.92;;
29432;SDS011;16405;53.964;13.448;2022-09-09T17:09:07;25.17;;;18.30;;
29432;SDS011;16405;53.964;13.448;2022-09-09T17:11:35;25.98;;;19.17;;
29432;SDS011;16405;53.964;13.448;2022-09-09T17:14:05;26.88;;;18.90;;
29432;SDS011;16405;53.964;13.448;2022-09-09T17:16:34;30.20;;;19.45;;
29432;SDS011;16405;53.964;13.448;2022-09-09T17:19:01;39.47;;;21.40;;
29432;SDS011;16405;53.964;13.448;2022-09-09T17:21:28;51.63;;;23.20;;
29432;SDS011;16405;53.964;13.448;2022-09-09T17:23:57;50.63;;;22.98;;
29432;SDS011;16405;53.964;13.448;2022-09-09T17:26:25;42.35;;;22.65;;
29432;SDS011;16405;53.964;13.448;2022-09-09T17:28:55;36.58;;;21.80;;
29432;SDS011;16405;53.964;13.448;2022-09-09T17:31:24;36.03;;;20.95;;
29432;SDS011;16405;53.964;13.448;2022-09-09T17:33:51;39.25;;;22.67;;
29432;SDS011;16405;53.964;13.448;2022-09-09T17:36:22;32.53;;;21.10;;
29432;SDS011;16405;53.964;13.448;2022-09-09T17:38:51;31.52;;;20.27;;
29432;SDS011;16405;53.964;13.448;2022-09-09T17:41:19;29.52;;;20.40;;
29432;SDS011;16405;53.964;13.448;2022-09-09T17:43:48;38.80;;;21.55;;
29432;SDS011;16405;53.964;13.448;2022-09-09T17:46:19;36.30;;;20.45;;
29432;SDS011;16405;53.964;13.448;2022-09-09T17:49:01;29.83;;;20.00;;
29432;SDS011;16405;53.964;13.448;2022-09-09T17:51:38;37.28;;;20.63;;
29432;SDS011;16405;53.964;13.448;2022-09-09T17:54:08;28.55;;;19.25;;
29432;SDS011;16405;53.964;13.448;2022-09-09T17:56:42;25.58;;;18.52;;
29432;SDS011;16405;53.964;13.448;2022-09-09T17:59:09;27.98;;;18.05;;
29432;SDS011;16405;53.964;13.448;2022-09-09T18:01:38;35.08;;;20.80;;
29432;SDS011;16405;53.964;13.448;2022-09-09T18:04:09;30.30;;;20.02;;
29432;SDS011;16405;53.964;13.448;2022-09-09T18:06:42;31.95;;;20.35;;
29432;SDS011;16405;53.964;13.448;2022-09-09T18:09:12;28.48;;;19.70;;
29432;SDS011;16405;53.964;13.448;2022-09-09T18:11:45;29.67;;;18.77;;
29432;SDS011;16405;53.964;13.448;2022-09-09T18:14:16;26.77;;;18.75;;